Time;durP1;ratioP1;P1;durP2;ratioP2;P2;SDS_P1;SDS_P2;PMS_P1;PMS_P2;Temp;Humidity;BMP_temperature;BMP_pressure;BME280_temperature;BME280_humidity;BME280_pressure;Samples;Min_cycle;Max_cycle;Signal;HPM_P1;HPM_P2
2022/04/03 00:01:12;;;;;;;25.08;10.50;;;-0.30;99.90;;;;;;5051366;28;20036;-53
2022/04/03 00:03:37;;;;;;;32.47;11.10;;;-0.30;99.90;;;;;;5050980;28;20120;-52
2022/04/03 00:06:03;;;;;;;21.67;9.75;;;-0.30;99.90;;;;;;5050981;28;20546;-52
2022/04/03 00:08:31;;;;;;;24.50;10.27;;;-0.40;99.90;;;;;;5051080;28;20094;-54
2022/04/03 00:10:57;;;;;;;28.42;11.50;;;-0.40;99.90;;;;;;5050532;28;20532;-52
2022/04/03 00:13:23;;;;;;;39.05;12.80;;;-0.40;99.90;;;;;;5051163;28;20036;-52
2022/04/03 00:15:49;;;;;;;31.42;12.07;;;-0.40;99.90;;;;;;5050734;28;20419;-52
2022/04/03 00:18:15;;;;;;;28.30;10.65;;;-0.40;99.90;;;;;;5051065;28;20040;-52
2022/04/03 00:20:41;;;;;;;33.37;11.23;;;-0.40;99.90;;;;;;5050802;28;20041;-52
2022/04/03 00:23:07;;;;;;;28.40;9.20;;;-0.40;99.90;;;;;;5050973;28;20274;-52
2022/04/03 00:25:33;;;;;;;24.30;10.35;;;-0.40;99.90;;;;;;5050333;28;20033;-52
2022/04/03 00:27:59;;;;;;;29.67;9.88;;;-0.40;99.90;;;;;;5050705;28;20025;-52
2022/04/03 00:30:25;;;;;;;27.50;11.43;;;-0.40;99.90;;;;;;5050363;28;20037;-53
2022/04/03 00:32:51;;;;;;;27.30;11.85;;;-0.40;99.90;;;;;;5050789;28;20480;-53
2022/04/03 00:35:16;;;;;;;38.78;12.27;;;-0.50;99.90;;;;;;5050407;28;20040;-53
2022/04/03 00:37:43;;;;;;;31.20;12.40;;;-0.50;99.90;;;;;;5050838;28;20750;-51
2022/04/03 00:40:09;;;;;;;30.15;10.88;;;-0.50;99.90;;;;;;5050171;28;20033;-51
2022/04/03 00:42:36;;;;;;;40.00;13.83;;;-0.50;99.90;;;;;;5050644;28;20044;-52
2022/04/03 00:45:04;;;;;;;48.22;15.75;;;-0.50;99.90;;;;;;5050109;28;20032;-53
2022/04/03 00:47:30;;;;;;;37.20;15.45;;;-0.50;99.90;;;;;;5050602;28;20025;-52
2022/04/03 00:49:56;;;;;;;43.85;14.27;;;-0.50;99.90;;;;;;5050371;28;20116;-53
2022/04/03 00:52:23;;;;;;;35.17;12.18;;;-0.60;99.90;;;;;;5050239;28;20108;-54
2022/04/03 00:54:49;;;;;;;36.83;13.32;;;-0.60;99.90;;;;;;5049969;28;20052;-53
2022/04/03 00:57:15;;;;;;;40.53;13.48;;;-0.70;99.90;;;;;;5050368;28;20475;-53
2022/04/03 00:59:42;;;;;;;29.92;11.63;;;-0.70;99.90;;;;;;5050404;28;20061;-52
2022/04/03 01:02:08;;;;;;;35.35;11.52;;;-0.70;99.90;;;;;;5050731;28;20032;-52
2022/04/03 01:04:37;;;;;;;36.20;11.20;;;-0.80;99.90;;;;;;5049515;28;20029;-52
2022/04/03 01:07:03;;;;;;;36.13;12.85;;;-0.80;99.90;;;;;;5050163;28;20056;-53
2022/04/03 01:09:29;;;;;;;28.38;10.57;;;-0.70;99.90;;;;;;5049695;28;20068;-53
2022/04/03 01:11:54;;;;;;;34.67;11.05;;;-0.80;99.90;;;;;;5050117;28;20484;-51
2022/04/03 01:14:36;;;;;;;27.80;10.52;;;-0.70;99.90;;;;;;5049544;28;20086;-52
2022/04/03 01:17:03;;;;;;;45.20;11.35;;;-0.70;99.90;;;;;;5049948;28;20040;-52
2022/04/03 01:19:29;;;;;;;38.35;10.60;;;-0.70;99.90;;;;;;5049034;28;20032;-52
2022/04/03 01:21:56;;;;;;;29.08;10.75;;;-0.70;99.90;;;;;;5049734;28;20106;-52
2022/04/03 01:24:22;;;;;;;31.20;10.48;;;-0.70;99.90;;;;;;5048170;28;20025;-51
2022/04/03 01:26:49;;;;;;;31.15;11.75;;;-0.80;99.90;;;;;;5049504;28;20028;-52
2022/04/03 01:29:17;;;;;;;31.40;11.97;;;-0.70;99.90;;;;;;5049845;28;20036;-52
2022/04/03 01:31:46;;;;;;;28.80;11.52;;;-0.70;99.90;;;;;;5049161;28;20029;-53
2022/04/03 01:34:12;;;;;;;27.30;10.60;;;-0.80;99.90;;;;;;5049063;28;20027;-53
2022/04/03 01:36:38;;;;;;;29.15;11.25;;;-0.80;99.90;;;;;;5048384;28;20061;-51
2022/04/03 01:39:03;;;;;;;26.23;9.13;;;-0.80;99.90;;;;;;5049209;28;20166;-51
2022/04/03 01:41:29;;;;;;;25.98;10.13;;;-0.80;99.90;;;;;;5049356;28;20021;-52
2022/04/03 01:43:55;;;;;;;28.13;10.57;;;-0.80;99.90;;;;;;5048147;28;20107;-52
2022/04/03 01:46:20;;;;;;;22.50;9.38;;;-0.80;99.90;;;;;;5049272;28;20053;-53
2022/04/03 01:48:46;;;;;;;29.23;9.77;;;-0.90;99.90;;;;;;5048916;28;20029;-55
2022/04/03 01:51:12;;;;;;;28.02;10.68;;;-0.90;99.90;;;;;;5049349;28;20442;-52
2022/04/03 01:53:38;;;;;;;22.77;8.63;;;-0.90;99.90;;;;;;5049146;28;20032;-52
2022/04/03 01:56:06;;;;;;;18.83;7.55;;;-0.90;99.90;;;;;;5049014;28;20071;-52
2022/04/03 01:58:33;;;;;;;16.88;7.40;;;-1.00;99.90;;;;;;5048987;28;20052;-53
2022/04/03 02:01:00;;;;;;;22.67;7.90;;;-0.90;99.90;;;;;;5049213;28;20067;-52
2022/04/03 02:03:29;;;;;;;22.70;7.95;;;-0.90;99.90;;;;;;5048575;28;20100;-52
2022/04/03 02:05:55;;;;;;;18.88;8.23;;;-0.90;99.90;;;;;;5048979;28;20033;-52
2022/04/03 02:08:21;;;;;;;22.65;8.85;;;-1.00;99.90;;;;;;5048372;28;20496;-52
2022/04/03 02:10:46;;;;;;;18.63;7.95;;;-0.90;99.90;;;;;;5047538;28;20044;-52
2022/04/03 02:13:12;;;;;;;16.33;7.13;;;-0.90;99.90;;;;;;5047811;28;20147;-50
2022/04/03 02:15:38;;;;;;;21.63;6.95;;;-1.00;99.90;;;;;;5044047;28;20023;-52
2022/04/03 02:18:04;;;;;;;21.58;8.13;;;-1.00;99.90;;;;;;5044250;28;20025;-51
2022/04/03 02:20:31;;;;;;;21.98;8.07;;;-1.00;99.90;;;;;;5048088;28;20032;-52
2022/04/03 02:22:58;;;;;;;15.65;7.60;;;-1.00;99.90;;;;;;5048034;28;20028;-50
2022/04/03 02:25:24;;;;;;;20.13;7.88;;;-1.00;99.90;;;;;;5048085;28;20128;-53
2022/04/03 02:27:51;;;;;;;17.63;7.18;;;-1.00;99.90;;;;;;5048093;28;20021;-53
2022/04/03 02:30:17;;;;;;;23.30;8.93;;;-1.00;99.90;;;;;;5047506;28;20028;-50
2022/04/03 02:32:42;;;;;;;18.80;7.90;;;-1.00;99.90;;;;;;5048049;28;20029;-51
2022/04/03 02:35:11;;;;;;;14.60;6.82;;;-1.10;99.90;;;;;;5047431;28;20507;-52
2022/04/03 02:37:38;;;;;;;22.83;8.73;;;-1.10;99.90;;;;;;5047710;28;20021;-52
2022/04/03 02:40:06;;;;;;;22.05;8.20;;;-1.00;99.90;;;;;;5047454;28;20081;-53
2022/04/03 02:42:32;;;;;;;21.23;7.35;;;-1.00;99.90;;;;;;5047685;28;20029;-53
2022/04/03 02:44:58;;;;;;;24.47;8.83;;;-1.10;99.90;;;;;;5047233;28;20535;-51
2022/04/03 02:47:24;;;;;;;16.10;7.00;;;-1.10;99.90;;;;;;5047541;28;20274;-51
2022/04/03 02:49:51;;;;;;;19.67;7.47;;;-1.10;99.90;;;;;;5047765;28;20460;-51
2022/04/03 02:52:20;;;;;;;21.85;8.23;;;-1.10;99.90;;;;;;5047375;28;20063;-52
2022/04/03 02:54:47;;;;;;;16.73;6.20;;;-1.10;99.90;;;;;;5044454;28;20598;-52
2022/04/03 02:57:14;;;;;;;22.92;7.28;;;-1.10;99.90;;;;;;5046334;28;20079;-53
2022/04/03 02:59:41;;;;;;;17.05;6.90;;;-1.00;99.90;;;;;;5047351;28;20059;-51
2022/04/03 03:02:07;;;;;;;16.33;6.53;;;-1.00;99.90;;;;;;5044597;28;20017;-52
2022/04/03 03:04:35;;;;;;;17.40;7.05;;;-1.00;99.90;;;;;;5047543;28;20141;-52
2022/04/03 03:07:05;;;;;;;18.15;7.32;;;-1.00;99.90;;;;;;5047558;28;20036;-51
2022/04/03 03:09:31;;;;;;;20.40;7.65;;;-1.00;99.90;;;;;;5047295;28;20124;-51
2022/04/03 03:11:58;;;;;;;15.27;6.20;;;-1.10;99.90;;;;;;5045878;28;20354;-52
2022/04/03 03:14:24;;;;;;;18.02;7.40;;;-1.00;99.90;;;;;;5047229;28;20021;-53
2022/04/03 03:16:49;;;;;;;14.18;6.10;;;-1.00;99.90;;;;;;5047267;28;20029;-52
2022/04/03 03:19:17;;;;;;;23.45;7.00;;;-1.00;99.90;;;;;;5046958;28;20083;-52
2022/04/03 03:21:43;;;;;;;24.35;7.72;;;-1.00;99.90;;;;;;5047286;28;20060;-54
2022/04/03 03:24:09;;;;;;;15.80;6.80;;;-1.00;99.90;;;;;;5046953;28;20476;-54
2022/04/03 03:26:35;;;;;;;16.15;7.00;;;-1.00;99.90;;;;;;5047384;28;20503;-54
2022/04/03 03:29:00;;;;;;;15.07;6.45;;;-1.10;99.90;;;;;;5047352;28;20033;-54
2022/04/03 03:31:26;;;;;;;18.38;6.43;;;-1.10;99.90;;;;;;5043346;28;20025;-50
2022/04/03 03:33:52;;;;;;;13.90;5.85;;;-1.10;99.90;;;;;;5047204;28;20032;-53
2022/04/03 03:36:17;;;;;;;14.57;5.80;;;-1.20;99.90;;;;;;5047316;28;20094;-51
2022/04/03 03:38:43;;;;;;;16.75;6.32;;;-1.20;99.90;;;;;;5047054;28;20427;-53
2022/04/03 03:41:09;;;;;;;21.48;7.43;;;-1.20;99.90;;;;;;5046961;28;20013;-51
2022/04/03 03:43:35;;;;;;;17.55;5.78;;;-1.20;99.90;;;;;;5046996;28;20419;-54
2022/04/03 03:46:01;;;;;;;12.15;5.68;;;-1.10;99.90;;;;;;5047144;28;20110;-53
2022/04/03 03:48:27;;;;;;;14.90;6.13;;;-1.10;99.90;;;;;;5047610;28;20083;-54
2022/04/03 03:50:53;;;;;;;12.13;4.82;;;-1.10;99.90;;;;;;5048159;28;20029;-54
2022/04/03 03:53:19;;;;;;;15.45;5.25;;;-1.10;99.90;;;;;;5047891;28;20120;-53
2022/04/03 03:55:45;;;;;;;15.20;6.53;;;-1.10;99.90;;;;;;5047599;28;20029;-52
2022/04/03 03:58:11;;;;;;;12.98;5.88;;;-1.20;99.90;;;;;;5048188;28;20032;-52
2022/04/03 04:00:37;;;;;;;13.65;5.65;;;-1.20;99.90;;;;;;5047904;28;20037;-54
2022/04/03 04:03:03;;;;;;;19.10;6.90;;;-1.20;99.90;;;;;;5047819;28;20033;-52
2022/04/03 04:05:29;;;;;;;18.10;7.72;;;-1.20;99.90;;;;;;5047339;28;20075;-53
2022/04/03 04:07:55;;;;;;;14.60;5.60;;;-1.20;99.90;;;;;;5051470;28;20025;-50
2022/04/03 04:10:21;;;;;;;15.60;5.32;;;-1.20;99.90;;;;;;5051025;28;20053;-52
2022/04/03 04:12:47;;;;;;;14.23;6.07;;;-1.20;99.90;;;;;;5051243;28;20763;-52
2022/04/03 04:15:14;;;;;;;11.07;4.78;;;-1.20;99.90;;;;;;5050960;28;20119;-54
2022/04/03 04:17:45;;;;;;;12.27;5.50;;;-1.20;99.90;;;;;;5051414;28;20048;-53
2022/04/03 04:20:16;;;;;;;13.52;5.28;;;-1.20;99.90;;;;;;5050951;28;20590;-52
2022/04/03 04:22:43;;;;;;;12.80;5.60;;;-1.20;99.90;;;;;;5051010;28;20111;-53
2022/04/03 04:25:11;;;;;;;15.15;5.63;;;-1.30;99.90;;;;;;5050578;28;20358;-54
2022/04/03 04:27:38;;;;;;;16.75;5.78;;;-1.20;99.90;;;;;;5051116;28;20029;-55
2022/04/03 04:30:04;;;;;;;18.50;5.80;;;-1.20;99.90;;;;;;5051118;28;20247;-53
2022/04/03 04:32:30;;;;;;;15.63;5.82;;;-1.30;99.90;;;;;;5050521;28;20048;-53
2022/04/03 04:34:56;;;;;;;11.88;5.28;;;-1.20;99.90;;;;;;5050410;28;20025;-55
2022/04/03 04:37:21;;;;;;;15.75;6.13;;;-1.20;99.90;;;;;;5050980;28;20111;-53
2022/04/03 04:39:47;;;;;;;12.30;6.25;;;-1.20;99.90;;;;;;5050360;28;20045;-52
2022/04/03 04:42:14;;;;;;;15.52;7.05;;;-1.20;99.90;;;;;;5050835;28;20029;-54
2022/04/03 04:44:40;;;;;;;13.23;5.00;;;-1.20;99.90;;;;;;5050578;28;20052;-55
2022/04/03 04:47:05;;;;;;;19.65;6.70;;;-1.20;99.90;;;;;;5050394;28;20035;-53
2022/04/03 04:49:31;;;;;;;17.20;6.32;;;-1.20;99.90;;;;;;5050360;28;20028;-53
2022/04/03 04:51:57;;;;;;;23.23;8.48;;;-1.20;99.90;;;;;;5050298;28;20033;-52
2022/04/03 04:54:25;;;;;;;23.27;7.80;;;-1.20;99.90;;;;;;5050491;28;20032;-52
2022/04/03 04:56:51;;;;;;;15.55;6.95;;;-1.20;99.90;;;;;;5050821;28;20052;-53
2022/04/03 04:59:17;;;;;;;16.65;7.85;;;-1.20;99.90;;;;;;5050381;28;20480;-54
2022/04/03 05:01:42;;;;;;;18.25;7.75;;;-1.20;99.90;;;;;;5050512;28;20075;-53
2022/04/03 05:04:08;;;;;;;16.35;6.47;;;-1.20;99.90;;;;;;5049896;28;20036;-53
2022/04/03 05:06:35;;;;;;;19.80;8.23;;;-1.20;99.90;;;;;;5050642;28;20032;-55
2022/04/03 05:09:02;;;;;;;;;;;-1.20;99.90;;;;;;5050221;28;20021;-55
2022/04/03 05:11:28;;;;;;;20.02;6.57;;;-1.20;99.90;;;;;;5050486;28;20410;-53
2022/04/03 05:13:53;;;;;;;17.65;6.93;;;-1.20;99.90;;;;;;5050016;28;20177;-51
2022/04/03 05:16:19;;;;;;;18.65;7.15;;;-1.20;99.90;;;;;;5049994;28;20039;-53
2022/04/03 05:18:46;;;;;;;18.15;7.18;;;-1.20;99.90;;;;;;5049767;28;20025;-51
2022/04/03 05:21:12;;;;;;;18.90;6.53;;;-1.20;99.90;;;;;;5049980;28;20092;-51
2022/04/03 05:23:39;;;;;;;17.67;6.60;;;-1.20;99.90;;;;;;5049997;28;20666;-54
2022/04/03 05:26:05;;;;;;;24.13;6.65;;;-1.10;99.90;;;;;;5050022;28;20029;-55
2022/04/03 05:28:30;;;;;;;13.98;5.90;;;-1.10;99.90;;;;;;5049598;28;20052;-53
2022/04/03 05:30:56;;;;;;;17.08;6.70;;;-1.10;99.90;;;;;;5049713;28;20163;-51
2022/04/03 05:33:22;;;;;;;17.73;7.32;;;-1.10;99.90;;;;;;5049779;28;20025;-54
2022/04/03 05:35:48;;;;;;;23.05;8.10;;;-1.10;99.90;;;;;;5049386;28;20021;-52
2022/04/03 05:38:14;;;;;;;19.42;8.38;;;-1.00;99.90;;;;;;5049396;28;20120;-55
2022/04/03 05:40:40;;;;;;;19.55;7.28;;;-1.00;99.90;;;;;;5049770;28;20121;-52
2022/04/03 05:43:08;;;;;;;16.67;7.07;;;-1.00;99.90;;;;;;5049457;28;20111;-53
2022/04/03 05:45:34;;;;;;;16.02;7.15;;;-1.00;99.90;;;;;;5049650;28;20040;-55
2022/04/03 05:48:01;;;;;;;15.88;7.10;;;-1.00;99.90;;;;;;5049261;28;20094;-55
2022/04/03 05:50:27;;;;;;;15.82;6.72;;;-0.90;99.90;;;;;;5048991;28;20568;-54
2022/04/03 05:52:53;;;;;;;16.48;6.80;;;-0.90;99.90;;;;;;5048106;28;20123;-54
2022/04/03 05:55:22;;;;;;;17.15;8.07;;;-0.90;99.90;;;;;;5048692;28;20503;-54
2022/04/03 05:57:49;;;;;;;14.77;6.45;;;-0.90;99.90;;;;;;5049257;28;20029;-53
2022/04/03 06:00:17;;;;;;;18.13;7.80;;;-0.90;99.90;;;;;;5049268;28;20485;-52
2022/04/03 06:02:47;;;;;;;13.73;6.90;;;-0.90;99.90;;;;;;5049586;28;20108;-53
2022/04/03 06:05:13;;;;;;;17.45;6.97;;;-0.90;99.90;;;;;;5047719;28;20037;-52
2022/04/03 06:07:39;;;;;;;17.55;6.38;;;-0.80;99.90;;;;;;5049167;28;20032;-53
2022/04/03 06:10:05;;;;;;;15.77;7.03;;;-0.80;99.90;;;;;;5048883;28;20106;-54
2022/04/03 06:12:30;;;;;;;17.65;7.25;;;-0.80;99.90;;;;;;5049005;28;20017;-54
2022/04/03 06:14:57;;;;;;;18.40;8.20;;;-0.70;99.90;;;;;;5048472;28;20120;-52
2022/04/03 06:17:23;;;;;;;21.13;7.93;;;-0.60;99.90;;;;;;5049145;28;20037;-56
2022/04/03 06:19:49;;;;;;;16.98;8.43;;;-0.60;99.90;;;;;;5049126;28;20032;-54
2022/04/03 06:22:15;;;;;;;18.38;7.68;;;-0.60;99.90;;;;;;5049069;28;20388;-53
2022/04/03 06:24:41;;;;;;;16.20;6.57;;;-0.60;99.90;;;;;;5048423;28;20115;-53
2022/04/03 06:27:06;;;;;;;22.10;9.05;;;-0.60;99.90;;;;;;5048544;28;20036;-53
2022/04/03 06:29:32;;;;;;;16.70;8.07;;;-0.60;99.90;;;;;;5048270;28;20479;-54
2022/04/03 06:31:58;;;;;;;15.68;7.88;;;-0.60;99.90;;;;;;5048670;28;20032;-53
2022/04/03 06:34:24;;;;;;;16.15;8.63;;;-0.60;99.90;;;;;;5048397;28;20025;-54
2022/04/03 06:36:50;;;;;;;18.50;9.85;;;-0.50;99.90;;;;;;5048660;28;20063;-56
2022/04/03 06:39:16;;;;;;;18.98;9.07;;;-0.40;99.90;;;;;;5047013;28;20460;-52
2022/04/03 06:41:42;;;;;;;14.80;8.48;;;-0.40;99.90;;;;;;5048804;28;20032;-51
2022/04/03 06:44:08;;;;;;;20.73;8.68;;;-0.30;99.90;;;;;;5048718;28;20025;-52
2022/04/03 06:46:34;;;;;;;18.13;8.65;;;-0.30;99.90;;;;;;5048490;28;20021;-52
2022/04/03 06:49:01;;;;;;;18.15;9.07;;;-0.20;99.90;;;;;;5048456;28;20029;-53
2022/04/03 06:51:26;;;;;;;22.77;9.70;;;-0.20;99.90;;;;;;5048716;28;20025;-52
2022/04/03 06:53:52;;;;;;;22.92;9.82;;;-0.30;99.90;;;;;;5048103;28;20279;-54
2022/04/03 06:56:19;;;;;;;18.95;10.13;;;-0.30;99.90;;;;;;5048593;28;20120;-53
2022/04/03 06:58:45;;;;;;;;;;;-0.30;99.90;;;;;;5049132;28;20040;-51
2022/04/03 07:01:10;;;;;;;17.75;9.38;;;-0.20;99.90;;;;;;5048546;28;19913;-52
2022/04/03 07:03:36;;;;;;;19.70;9.98;;;-0.20;99.90;;;;;;5048277;28;20031;-53
2022/04/03 07:06:02;;;;;;;19.35;9.30;;;-0.10;99.90;;;;;;5048191;28;20039;-53
2022/04/03 07:08:28;;;;;;;21.80;10.03;;;-0.10;99.90;;;;;;5048443;28;20047;-53
2022/04/03 07:10:55;;;;;;;22.90;9.93;;;0.00;99.90;;;;;;5048342;28;20500;-53
2022/04/03 07:13:21;;;;;;;25.35;10.70;;;0.10;99.90;;;;;;5046312;28;20040;-51
2022/04/03 07:15:49;;;;;;;22.95;12.25;;;0.10;99.90;;;;;;5043786;28;20025;-54
2022/04/03 07:18:16;;;;;;;24.13;11.07;;;0.20;99.90;;;;;;5047571;28;20013;-52
2022/04/03 07:20:42;;;;;;;21.58;9.63;;;0.30;99.90;;;;;;5048950;28;20044;-54
2022/04/03 07:23:08;;;;;;;22.00;10.85;;;0.40;99.90;;;;;;5053400;28;20150;-54
2022/04/03 07:25:33;;;;;;;19.63;10.25;;;0.50;99.90;;;;;;5056203;28;20123;-53
2022/04/03 07:27:59;;;;;;;19.77;10.15;;;0.50;99.90;;;;;;5056655;28;20063;-53
2022/04/03 07:30:25;;;;;;;25.08;11.00;;;0.50;99.90;;;;;;5056193;28;20020;-54
2022/04/03 07:32:50;;;;;;;23.20;10.82;;;0.50;99.90;;;;;;5057602;28;20492;-52
2022/04/03 07:35:16;;;;;;;22.90;10.38;;;0.50;99.90;;;;;;5056180;28;20431;-51
2022/04/03 07:37:42;;;;;;;52.05;17.20;;;0.70;99.90;;;;;;5056224;28;20075;-53
2022/04/03 07:40:11;;;;;;;44.33;15.73;;;0.80;99.90;;;;;;5057278;28;20090;-54
2022/04/03 07:42:39;;;;;;;24.92;10.40;;;0.90;99.90;;;;;;5060339;28;20013;-53
2022/04/03 07:45:05;;;;;;;23.33;10.52;;;1.00;99.90;;;;;;5059296;28;20032;-52
2022/04/03 07:47:30;;;;;;;22.15;9.75;;;1.00;99.90;;;;;;5053193;28;20465;-53
2022/04/03 07:49:56;;;;;;;17.70;9.85;;;1.20;99.90;;;;;;5050669;28;20098;-52
2022/04/03 07:52:23;;;;;;;19.13;9.05;;;1.10;99.90;;;;;;5050788;28;20017;-53
2022/04/03 07:54:49;;;;;;;25.85;10.02;;;1.00;99.90;;;;;;5050177;28;20028;-52
2022/04/03 07:57:18;;;;;;;23.20;10.57;;;1.00;99.90;;;;;;5049925;28;20025;-51
2022/04/03 07:59:44;;;;;;;17.27;10.48;;;1.10;99.90;;;;;;5047282;28;20079;-54
2022/04/03 08:02:10;;;;;;;19.10;10.15;;;1.20;99.90;;;;;;5050573;28;20421;-53
2022/04/03 08:04:36;;;;;;;21.73;10.85;;;1.40;99.90;;;;;;5048786;28;20032;-51
2022/04/03 08:07:01;;;;;;;18.25;9.85;;;1.40;99.90;;;;;;5050709;28;20123;-53
2022/04/03 08:09:27;;;;;;;20.50;9.35;;;1.50;99.90;;;;;;5048443;28;20052;-54
2022/04/03 08:11:53;;;;;;;17.05;9.57;;;1.60;99.90;;;;;;5050443;28;20035;-52
2022/04/03 08:14:18;;;;;;;20.35;10.15;;;1.60;99.90;;;;;;5049858;28;20021;-53
2022/04/03 08:16:44;;;;;;;22.83;9.25;;;1.60;99.90;;;;;;5045140;28;20056;-51
2022/04/03 08:19:10;;;;;;;17.13;8.35;;;1.70;99.90;;;;;;5049522;28;20396;-52
2022/04/03 08:21:36;;;;;;;16.00;8.82;;;1.60;99.90;;;;;;5050408;28;20066;-53
2022/04/03 08:24:05;;;;;;;20.65;9.07;;;1.50;99.90;;;;;;5049506;28;20029;-52
2022/04/03 08:26:31;;;;;;;17.13;9.57;;;1.80;99.90;;;;;;5049480;28;20021;-51
2022/04/03 08:28:56;;;;;;;16.05;8.55;;;1.90;99.90;;;;;;5051113;28;20432;-53
2022/04/03 08:31:23;;;;;;;25.73;9.80;;;1.90;99.90;;;;;;5051169;28;20448;-54
2022/04/03 08:33:52;;;;;;;22.45;9.57;;;2.10;99.90;;;;;;5050550;28;20029;-52
2022/04/03 08:36:19;;;;;;;28.48;11.05;;;2.00;99.90;;;;;;5077467;28;20726;-52
2022/04/03 08:38:46;;;;;;;25.02;10.00;;;2.00;99.90;;;;;;5050866;28;20076;-53
2022/04/03 08:41:12;;;;;;;25.05;11.30;;;2.00;99.90;;;;;;5050912;28;20087;-51
2022/04/03 08:43:40;;;;;;;25.90;10.30;;;2.30;99.90;;;;;;5049952;28;20061;-52
2022/04/03 08:46:09;;;;;;;18.88;9.52;;;2.50;99.90;;;;;;5049807;28;20029;-53
2022/04/03 08:48:37;;;;;;;19.88;8.80;;;2.60;99.90;;;;;;5050471;28;20036;-54
2022/04/03 08:51:04;;;;;;;13.65;7.32;;;2.60;99.90;;;;;;5050918;28;20111;-52
2022/04/03 08:53:32;;;;;;;12.82;7.20;;;2.80;99.90;;;;;;5050569;28;20017;-51
2022/04/03 08:55:59;;;;;;;19.02;9.57;;;2.80;99.90;;;;;;5048950;28;20021;-52
2022/04/03 08:58:25;;;;;;;20.92;9.75;;;2.90;99.90;;;;;;5049031;28;20029;-52
2022/04/03 09:00:51;;;;;;;20.50;9.05;;;3.00;99.90;;;;;;5050789;28;20155;-52
2022/04/03 09:03:17;;;;;;;23.48;10.52;;;3.20;99.90;;;;;;5050802;28;20057;-51
2022/04/03 09:05:43;;;;;;;20.25;9.45;;;3.20;99.90;;;;;;5050096;28;20060;-54
2022/04/03 09:08:10;;;;;;;19.85;9.15;;;3.50;99.90;;;;;;5050193;28;20025;-51
2022/04/03 09:10:36;;;;;;;19.58;9.20;;;4.10;99.90;;;;;;5046812;28;20051;-52
2022/04/03 09:13:03;;;;;;;21.17;9.27;;;4.30;99.90;;;;;;5050177;28;20057;-52
2022/04/03 09:15:30;;;;;;;17.42;8.57;;;4.50;99.90;;;;;;5043842;28;20064;-52
2022/04/03 09:18:04;;;;;;;19.13;7.70;;;4.70;99.90;;;;;;5049410;28;20032;-53
2022/04/03 09:20:36;;;;;;;15.20;7.97;;;4.90;99.90;;;;;;5046894;28;20441;-53
2022/04/03 09:23:06;;;;;;;14.02;7.47;;;4.70;99.90;;;;;;5049427;28;20115;-52
2022/04/03 09:25:35;;;;;;;12.95;6.85;;;4.50;99.90;;;;;;5049211;28;20087;-52
2022/04/03 09:28:06;;;;;;;15.68;7.72;;;4.80;99.90;;;;;;5047127;28;20025;-52
2022/04/03 09:30:42;;;;;;;16.15;7.57;;;4.90;99.90;;;;;;5048869;28;20029;-51
2022/04/03 09:33:10;;;;;;;17.90;7.28;;;4.80;99.90;;;;;;5053907;28;20143;-53
2022/04/03 09:35:58;;;;;;;13.70;7.28;;;4.70;99.90;;;;;;5060165;28;20020;-50
2022/04/03 09:38:28;;;;;;;13.40;6.85;;;4.90;99.90;;;;;;5057331;28;20108;-52
2022/04/03 09:40:55;;;;;;;15.98;7.20;;;5.20;99.90;;;;;;5057084;28;20025;-52
2022/04/03 09:43:23;;;;;;;19.53;7.83;;;5.00;99.90;;;;;;5059529;28;20021;-51
2022/04/03 09:45:53;;;;;;;17.75;7.32;;;4.80;99.90;;;;;;5058613;28;20021;-52
2022/04/03 09:48:24;;;;;;;15.40;7.38;;;5.10;99.90;;;;;;5053956;28;20033;-51
2022/04/03 09:51:07;;;;;;;16.88;6.65;;;5.10;99.90;;;;;;5057211;28;20039;-52
2022/04/03 09:53:47;;;;;;;12.48;6.25;;;4.70;99.90;;;;;;5058948;28;20071;-51
2022/04/03 09:56:29;;;;;;;16.15;7.05;;;4.20;99.90;;;;;;5052124;28;20068;-53
2022/04/03 09:59:00;;;;;;;17.77;8.43;;;4.60;99.90;;;;;;5058258;28;20031;-52
2022/04/03 10:01:39;;;;;;;15.13;7.25;;;4.60;99.90;;;;;;5060541;28;20032;-54
2022/04/03 10:04:07;;;;;;;14.57;7.18;;;4.50;99.90;;;;;;5029679;28;20021;-52
2022/04/03 10:06:35;;;;;;;15.68;7.43;;;4.40;99.90;;;;;;5048239;28;20116;-54
2022/04/03 10:09:07;;;;;;;12.45;5.80;;;4.10;99.90;;;;;;5048047;28;20048;-53
2022/04/03 10:11:33;;;;;;;13.13;6.15;;;3.90;99.90;;;;;;5039435;28;20064;-52
2022/04/03 10:14:01;;;;;;;14.68;7.28;;;4.20;99.90;;;;;;5048409;28;20041;-54
2022/04/03 10:16:28;;;;;;;12.70;5.72;;;4.50;99.90;;;;;;5025150;28;20025;-53
2022/04/03 10:18:54;;;;;;;12.27;6.13;;;4.30;99.90;;;;;;5048666;28;20044;-54
2022/04/03 10:21:36;;;;;;;10.40;5.70;;;4.30;99.90;;;;;;5059201;28;20032;-52
2022/04/03 10:24:24;;;;;;;14.13;6.72;;;4.40;99.90;;;;;;5081847;28;20484;-52
2022/04/03 10:27:11;;;;;;;15.90;6.63;;;4.30;99.90;;;;;;5046671;28;20410;-53
2022/04/03 10:29:38;;;;;;;10.95;6.10;;;4.30;99.90;;;;;;5046910;28;20075;-53
2022/04/03 10:32:06;;;;;;;14.75;6.03;;;4.50;99.90;;;;;;5047268;28;20261;-53
2022/04/03 10:34:43;;;;;;;;;;;4.30;99.90;;;;;;5047472;28;20031;-53
2022/04/03 10:37:31;;;;;;;11.68;4.82;;;4.10;99.90;;;;;;5036242;28;19909;-54
2022/04/03 10:40:23;;;;;;;13.00;5.65;;;4.00;99.90;;;;;;5045148;28;20036;-52
2022/04/03 10:42:53;;;;;;;16.50;6.47;;;3.90;99.90;;;;;;5046640;28;20025;-54
2022/04/03 10:45:22;;;;;;;11.25;4.95;;;3.90;99.90;;;;;;5047622;28;20064;-55
2022/04/03 10:47:49;;;;;;;14.05;5.13;;;3.70;99.90;;;;;;5048016;28;20056;-52
2022/04/03 10:50:15;;;;;;;;;;;3.60;99.90;;;;;;5049505;28;20036;-52
2022/04/03 10:52:41;;;;;;;10.68;5.22;;;3.50;99.90;;;;;;5047091;28;19904;-55
2022/04/03 10:55:20;;;;;;;14.45;5.78;;;3.50;99.90;;;;;;5049243;28;20479;-53
2022/04/03 10:57:49;;;;;;;13.10;5.35;;;3.60;99.90;;;;;;5048487;28;20032;-53
2022/04/03 11:00:14;;;;;;;10.05;5.00;;;3.60;99.90;;;;;;5048296;28;20095;-53
2022/04/03 11:02:52;;;;;;;13.15;4.30;;;3.40;99.90;;;;;;5076817;28;20551;-53
2022/04/03 11:05:26;;;;;;;13.05;5.28;;;3.20;99.40;;;;;;5045655;28;20028;-52
2022/04/03 11:08:04;;;;;;;10.07;5.13;;;3.30;99.90;;;;;;5045746;28;20060;-53
2022/04/03 11:10:59;;;;;;;14.20;5.97;;;3.50;99.90;;;;;;5045143;28;20044;-51
2022/04/03 11:13:31;;;;;;;11.85;5.20;;;3.70;99.90;;;;;;5031950;28;20032;-51
2022/04/03 11:16:04;;;;;;;11.05;5.68;;;3.60;99.90;;;;;;5042000;28;20029;-56
2022/04/03 11:18:37;;;;;;;10.93;5.50;;;3.60;99.90;;;;;;5051227;28;20017;-53
2022/04/03 11:21:15;;;;;;;12.68;6.05;;;3.50;99.90;;;;;;5050951;28;20476;-52
2022/04/03 11:23:43;;;;;;;;;;;3.70;99.90;;;;;;5048100;28;20051;-53
2022/04/03 11:26:09;;;;;;;18.30;8.07;;;3.60;99.90;;;;;;5050728;28;20407;-53
2022/04/03 11:28:34;;;;;;;13.52;6.22;;;3.60;99.90;;;;;;5049272;28;20044;-52
2022/04/03 11:31:01;;;;;;;16.17;7.68;;;3.60;99.90;;;;;;5051037;28;20064;-51
2022/04/03 11:33:31;;;;;;;17.73;7.50;;;3.70;99.90;;;;;;5050920;28;20017;-51
2022/04/03 11:36:12;;;;;;;12.55;6.55;;;3.70;99.90;;;;;;5041699;28;20119;-52
2022/04/03 11:38:39;;;;;;;14.70;6.95;;;3.60;99.90;;;;;;5049941;28;20148;-55
2022/04/03 11:41:16;;;;;;;13.85;6.10;;;3.70;99.90;;;;;;5062882;28;20029;-52
2022/04/03 11:43:45;;;;;;;16.73;6.37;;;3.60;99.90;;;;;;5071321;28;20048;-51
2022/04/03 11:46:11;;;;;;;16.92;8.82;;;3.50;99.90;;;;;;5062041;28;20491;-52
2022/04/03 11:48:45;;;;;;;14.48;7.70;;;3.50;99.90;;;;;;5057436;28;20028;-53
2022/04/03 11:51:18;;;;;;;14.13;6.90;;;3.60;99.90;;;;;;5057300;28;20105;-51
2022/04/03 11:53:46;;;;;;;11.63;6.07;;;3.80;99.90;;;;;;5057668;28;20036;-51
2022/04/03 11:56:15;;;;;;;14.18;6.82;;;4.10;99.90;;;;;;5059459;28;20024;-53
2022/04/03 11:58:54;;;;;;;14.50;6.43;;;4.40;99.90;;;;;;5060777;28;20029;-52
2022/04/03 12:01:50;;;;;;;12.98;6.68;;;4.70;99.90;;;;;;5059589;28;20027;-52
2022/04/03 12:04:16;;;;;;;16.63;6.97;;;5.30;99.90;;;;;;5056636;28;20082;-52
2022/04/03 12:06:44;;;;;;;11.63;5.80;;;5.60;99.90;;;;;;5059452;28;20372;-54
2022/04/03 12:09:21;;;;;;;13.20;5.55;;;5.80;93.70;;;;;;5056156;28;20115;-51
2022/04/03 12:11:48;;;;;;;10.63;5.63;;;5.80;90.40;;;;;;5051795;28;20120;-52
2022/04/03 12:14:23;;;;;;;17.70;7.03;;;5.60;92.60;;;;;;5053277;28;20456;-54
2022/04/03 12:16:57;;;;;;;15.10;7.43;;;5.40;92.80;;;;;;5047191;28;20055;-52
2022/04/03 12:19:23;;;;;;;16.83;6.90;;;5.20;92.20;;;;;;5049172;28;20081;-51
2022/04/03 12:21:59;;;;;;;17.02;6.78;;;4.80;92.50;;;;;;5047597;28;20029;-52
2022/04/03 12:24:27;;;;;;;15.50;6.90;;;4.40;96.10;;;;;;5049219;28;20029;-53
2022/04/03 12:27:05;;;;;;;15.02;7.57;;;4.00;99.80;;;;;;5049253;28;20048;-53
2022/04/03 12:29:35;;;;;;;16.27;8.35;;;3.70;99.90;;;;;;5049051;28;20020;-52
2022/04/03 12:32:04;;;;;;;18.23;9.27;;;3.50;99.90;;;;;;5049850;28;20036;-53
2022/04/03 12:34:32;;;;;;;18.73;8.23;;;3.40;99.90;;;;;;5050088;28;20025;-52
2022/04/03 12:36:59;;;;;;;19.60;7.95;;;3.20;99.90;;;;;;5050099;28;20036;-53
2022/04/03 12:39:40;;;;;;;;;;;3.30;99.90;;;;;;5049937;28;20098;-51
2022/04/03 12:42:13;;;;;;;15.20;6.75;;;3.20;99.90;;;;;;5066753;28;20038;-52
2022/04/03 12:44:46;;;;;;;16.55;7.72;;;3.10;99.90;;;;;;5070137;28;20025;-53